createdAt,value
2023-08-20T01:36:02.108Z,0.02
2023-08-20T01:38:53.635Z,0.01
2023-08-20T01:41:30.844Z,0.02
2023-08-20T01:43:54.557Z,0.01
2023-08-20T03:19:54.468Z,0.02
2023-08-20T03:23:59.011Z,0.03
2023-08-20T03:29:09.856Z,0.04
2023-08-20T03:31:25.023Z,0.06
2023-08-20T03:33:26.456Z,0.08
2023-08-20T03:36:15.080Z,0.13
2023-08-20T03:38:49.880Z,0.2
2023-08-20T03:41:10.990Z,0.29
2023-08-20T03:43:18.545Z,0.4
2023-08-20T03:45:12.349Z,0.52
2023-08-20T03:47:53.202Z,0.82
2023-08-20T03:50:20.188Z,1.19
2023-08-20T03:52:33.700Z,1.72
2023-08-20T03:54:33.503Z,2.34
2023-08-20T03:57:20.231Z,3.67
2023-08-20T03:59:53.462Z,5.31
2023-08-20T04:02:12.920Z,7.63
2023-08-20T04:04:18.617Z,10.2
2023-08-20T04:07:11.603Z,15.6
2023-08-20T04:09:50.725Z,23.05
2023-08-20T04:12:16.213Z,31.82
2023-08-20T04:14:27.827Z,41.34
2023-08-20T04:16:25.982Z,48.8
2023-08-20T04:19:10.621Z,65.1
2023-08-20T04:21:41.951Z,80.4
2023-08-20T04:23:59.793Z,98.16
2023-08-20T04:26:03.871Z,115.08
2023-08-20T04:28:55.031Z,147.28
2023-08-20T04:31:32.619Z,187.2
2023-08-20T04:33:56.318Z,225.8
2023-08-20T04:36:06.345Z,237.1
2023-08-20T04:38:02.960Z,272.1
2023-08-20T04:40:46.506Z,356.9
2023-08-20T04:43:16.298Z,420.4
2023-08-20T04:45:32.404Z,419
2023-08-20T04:47:35.246Z,451.2
2023-08-20T04:50:24.460Z,526.4
2023-08-20T04:53:00.086Z,558.5
2023-08-20T04:55:22.102Z,605.7
2023-08-20T04:57:30.379Z,671
2023-08-20T04:59:25.077Z,725.1
2023-08-20T05:02:07.006Z,820.4
2023-08-20T05:04:35.097Z,888
2023-08-20T05:06:49.406Z,893.1
2023-08-20T05:08:49.724Z,877.1
2023-08-20T05:11:37.428Z,797.7
2023-08-20T05:14:11.383Z,766.4
2023-08-20T05:16:31.588Z,842.2
2023-08-20T05:18:38.320Z,839.3
2023-08-20T05:21:31.998Z,942.4
2023-08-20T05:24:11.846Z,1065.2
2023-08-20T05:26:38.086Z,1113.2
2023-08-20T05:28:50.615Z,1089.2
2023-08-20T05:30:49.430Z,1030
2023-08-20T05:33:35.338Z,1032.9
2023-08-20T05:36:07.662Z,1241.9
2023-08-20T05:38:26.204Z,1648
2023-08-20T05:40:31.247Z,2046
2023-08-20T05:43:23.092Z,2182
2023-08-20T05:46:01.161Z,1963
2023-08-20T05:48:25.399Z,2025
2023-08-20T05:50:36.191Z,1927
2023-08-20T05:52:33.326Z,1770
2023-08-20T05:55:18.269Z,1941
2023-08-20T05:57:47.674Z,1964
2023-08-20T06:00:03.870Z,1754
2023-08-20T06:02:06.858Z,1814
2023-08-20T06:04:56.891Z,1782
2023-08-20T06:07:33.331Z,1982
2023-08-20T06:09:56.048Z,1907
2023-08-20T06:12:05.007Z,2300
2023-08-20T06:14:00.457Z,2403
2023-08-20T06:16:42.777Z,2536
2023-08-20T06:19:12.384Z,2731
2023-08-20T06:21:26.256Z,2826
2023-08-20T06:23:42.253Z,3215
2023-08-20T06:26:15.873Z,2801
2023-08-20T06:28:50.659Z,2524
2023-08-20T06:31:11.718Z,2138
2023-08-20T06:33:19.003Z,2277
2023-08-20T06:35:12.918Z,2363
2023-08-20T06:37:53.769Z,2451
2023-08-20T06:40:20.890Z,2412
2023-08-20T06:42:34.106Z,1928
2023-08-20T06:44:33.937Z,1857
2023-08-20T06:47:20.769Z,1769
2023-08-20T06:49:53.432Z,1799
2023-08-20T06:52:12.993Z,1818
2023-08-20T06:54:18.766Z,1834
2023-08-20T06:57:11.548Z,1912
2023-08-20T06:59:50.686Z,2037
2023-08-20T07:02:16.087Z,2270
2023-08-20T07:04:27.780Z,2786
2023-08-20T07:06:25.906Z,3182
2023-08-20T07:09:10.872Z,3449
2023-08-20T07:11:42.324Z,3553
2023-08-20T07:14:00.016Z,3351
2023-08-20T07:16:04.256Z,3123
2023-08-20T07:18:55.382Z,2568
2023-08-20T07:21:33.023Z,2163
2023-08-20T07:23:56.683Z,2174
2023-08-20T07:26:06.755Z,2128
2023-08-20T07:28:03.070Z,2100
2023-08-20T07:30:46.535Z,2087
2023-08-20T07:33:16.345Z,2096
2023-08-20T07:35:32.304Z,2121
2023-08-20T07:37:34.994Z,2155
2023-08-20T07:40:23.810Z,2167
2023-08-20T07:42:59.538Z,2151
2023-08-20T07:45:21.567Z,2132
2023-08-20T07:47:29.993Z,2106
2023-08-20T07:49:24.686Z,2083
2023-08-20T07:52:06.494Z,2068
2023-08-20T07:54:34.631Z,2058
2023-08-20T07:56:49.072Z,2060
2023-08-20T07:58:49.699Z,2066
2023-08-20T08:01:37.675Z,2080
2023-08-20T08:04:11.849Z,2076
2023-08-20T08:06:32.208Z,2087
2023-08-20T08:11:32.839Z,2083
2023-08-20T08:14:12.852Z,2103
2023-08-20T08:16:39.142Z,2127
2023-08-20T08:18:51.744Z,2146
2023-08-20T08:20:50.646Z,2108
2023-08-20T08:23:36.597Z,2119
2023-08-20T08:26:09.020Z,2127
2023-08-20T08:28:27.664Z,2106
2023-08-20T08:30:32.122Z,2101
2023-08-20T08:33:24.197Z,2100
2023-08-20T08:36:02.536Z,2106
2023-08-20T08:38:27.900Z,2093
2023-08-20T08:40:37.821Z,2088
2023-08-20T08:42:35.099Z,2096
2023-08-20T08:47:49.912Z,2099
2023-08-20T08:50:06.864Z,2085
2023-08-20T08:52:10.053Z,2095
2023-08-20T08:55:00.250Z,2115
2023-08-20T08:57:37.087Z,2135
2023-08-20T08:59:59.841Z,2144
2023-08-20T09:02:08.918Z,2140
2023-08-20T09:04:04.481Z,2153
2023-08-20T09:06:47.041Z,2163
2023-08-20T09:08:57.297Z,2174
2023-08-20T09:10:53.847Z,2188
2023-08-20T09:13:37.332Z,2215
2023-08-20T09:16:07.347Z,2227
2023-08-20T09:18:23.305Z,2240
2023-08-20T09:20:25.209Z,2262
2023-08-20T09:23:14.697Z,2281
2023-08-20T09:25:50.513Z,2286
2023-08-20T09:28:12.501Z,2304
2023-08-20T09:30:20.919Z,2315
2023-08-20T09:32:15.625Z,2324
2023-08-20T09:34:57.207Z,2333
2023-08-20T09:37:25.168Z,2337
2023-08-20T09:39:39.334Z,2339
2023-08-20T09:41:39.930Z,2346
2023-08-20T09:44:27.413Z,2361
2023-08-20T09:47:01.391Z,2384
2023-08-20T09:49:21.660Z,2390
2023-08-20T09:54:21.760Z,2424
2023-08-20T09:57:01.620Z,2453
2023-08-20T09:59:27.760Z,2476
2023-08-20T10:01:40.266Z,2491
2023-08-20T10:03:38.989Z,2496
2023-08-20T10:06:24.768Z,2519
2023-08-20T10:08:56.813Z,2531
2023-08-20T10:11:14.864Z,2559
2023-08-20T10:13:19.671Z,2581
2023-08-20T10:16:11.323Z,2607
2023-08-20T10:18:49.421Z,2626
2023-08-20T10:21:13.788Z,2645
2023-08-20T10:23:24.412Z,2638
2023-08-20T10:28:05.606Z,2680
2023-08-20T10:30:35.733Z,2679
2023-08-20T10:32:52.247Z,2672
2023-08-20T10:34:55.270Z,2693
2023-08-20T10:37:45.173Z,2714
2023-08-20T10:40:21.263Z,2732
2023-08-20T10:42:43.942Z,2752
2023-08-20T10:44:52.833Z,2758
2023-08-20T10:46:48.046Z,2749
2023-08-20T10:49:30.314Z,2750
2023-08-20T10:51:58.828Z,2753
2023-08-20T10:54:13.634Z,2778
2023-08-20T10:56:15.007Z,2780
2023-08-20T10:59:03.134Z,2778
2023-08-20T11:01:37.099Z,2792
2023-08-20T11:03:57.791Z,2794
2023-08-20T11:06:05.012Z,2789
2023-08-20T11:07:58.490Z,2803
2023-08-20T11:10:38.827Z,2821
2023-08-20T11:13:05.666Z,2840
2023-08-20T11:15:18.800Z,2851
2023-08-20T11:17:18.182Z,2850
2023-08-20T11:20:08.625Z,2869
2023-08-20T11:22:37.358Z,2877
2023-08-20T11:24:56.346Z,2872
2023-08-20T11:27:01.876Z,2896
2023-08-20T11:29:54.193Z,2890
2023-08-20T11:32:32.842Z,2895
2023-08-20T11:34:57.751Z,2900
2023-08-20T11:37:09.182Z,2904
2023-08-20T11:41:51.353Z,2914
2023-08-20T11:44:22.301Z,2919
2023-08-20T11:46:39.654Z,2927
2023-08-20T11:48:43.217Z,2940
2023-08-20T11:51:33.461Z,2949
2023-08-20T11:54:10.444Z,2959
2023-08-20T11:56:33.768Z,2969
2023-08-20T11:58:43.357Z,2965
2023-08-20T12:00:39.268Z,2956
2023-08-20T12:03:22.160Z,2958
2023-08-20T12:05:51.264Z,2954
2023-08-20T12:08:07.039Z,2952
2023-08-20T12:10:08.984Z,2951
2023-08-20T12:12:57.795Z,2955
2023-08-20T12:15:33.068Z,2949
2023-08-20T12:17:54.794Z,2954
2023-08-20T12:20:02.595Z,2947
2023-08-20T12:21:57.045Z,2945
2023-08-20T12:27:05.685Z,2938
2023-08-20T12:29:19.516Z,2935
2023-08-20T12:31:19.863Z,2928
2023-08-20T12:34:07.047Z,2914
2023-08-20T12:36:40.582Z,2912
2023-08-20T12:39:00.509Z,2890
2023-08-20T12:41:06.373Z,2880
2023-08-20T12:43:59.409Z,2867
2023-08-20T12:46:38.942Z,2860
2023-08-20T12:49:04.691Z,2872
2023-08-20T12:53:15.592Z,2878
2023-08-20T12:56:01.206Z,2887
2023-08-20T12:58:33.024Z,2888
2023-08-20T13:00:51.002Z,2891
2023-08-20T13:02:55.962Z,2886
2023-08-20T13:05:46.957Z,2882
2023-08-20T13:08:24.661Z,2883
2023-08-20T13:10:48.920Z,2886
2023-08-20T13:12:59.501Z,2872
2023-08-20T13:14:56.217Z,2877
2023-08-20T13:17:40.076Z,2872
2023-08-20T13:20:10.125Z,2871
2023-08-20T13:22:26.467Z,2868
2023-08-20T13:24:29.479Z,2856
2023-08-20T13:27:18.906Z,2846
2023-08-20T13:29:54.805Z,2839
2023-08-20T13:32:16.544Z,2836
2023-08-20T13:34:25.282Z,2832
2023-08-20T13:36:20.278Z,2826
2023-08-20T13:39:02.019Z,2816
2023-08-20T13:41:30.503Z,2818
2023-08-20T13:43:45.079Z,2814
2023-08-20T13:45:46.041Z,2801
2023-08-20T13:48:33.865Z,2787
2023-08-20T13:51:08.102Z,2778
2023-08-20T13:53:28.545Z,2772
2023-08-20T13:55:35.572Z,2764
2023-08-20T13:57:28.941Z,2754
2023-08-20T14:00:09.084Z,2736
2023-08-20T14:02:35.719Z,2726
2023-08-20T14:04:48.442Z,2725
2023-08-20T14:06:47.753Z,2702
2023-08-20T14:09:33.749Z,2709
2023-08-20T14:12:06.437Z,2711
2023-08-20T14:14:25.333Z,2688
2023-08-20T14:16:30.621Z,2672
2023-08-20T14:19:22.777Z,2671
2023-08-20T14:22:00.878Z,2700
2023-08-20T14:24:25.720Z,2512
2023-08-20T14:26:36.838Z,1724
2023-08-20T14:28:34.424Z,2098
2023-08-20T14:31:18.782Z,2914
2023-08-20T14:33:49.573Z,3064
2023-08-20T14:36:06.701Z,3106
2023-08-20T14:38:10.302Z,2407
2023-08-20T14:41:02.006Z,2952
2023-08-20T14:43:37.309Z,2762
2023-08-20T14:46:00.507Z,2662
2023-08-20T14:48:10.045Z,2430
2023-08-20T14:50:06.003Z,2309
2023-08-20T14:52:48.821Z,2334
2023-08-20T14:55:17.882Z,2266
2023-08-20T14:57:41.250Z,2165
2023-08-20T14:59:35.214Z,2153
2023-08-20T15:02:23.964Z,2097
2023-08-20T15:04:58.964Z,2061
2023-08-20T15:07:20.552Z,2123
2023-08-20T15:09:28.498Z,2110
2023-08-20T15:11:22.182Z,2143
2023-08-20T15:14:03.278Z,2206
2023-08-20T15:16:30.691Z,2339
2023-08-20T15:18:44.378Z,2288
2023-08-20T15:20:44.650Z,2203
2023-08-20T15:23:31.574Z,2090
2023-08-20T15:26:04.880Z,2180
2023-08-20T15:28:24.484Z,2202
2023-08-20T15:30:30.837Z,2008
2023-08-20T15:33:23.624Z,1916
2023-08-20T15:36:02.928Z,1863
2023-08-20T15:38:28.725Z,2118
2023-08-20T15:40:40.940Z,1864
2023-08-20T15:42:39.248Z,1845
2023-08-20T15:45:24.842Z,1881
2023-08-20T15:47:56.613Z,1873
2023-08-20T15:50:14.665Z,1564.8
2023-08-20T15:52:19.274Z,1477.1
2023-08-20T15:55:10.595Z,1461.7
2023-08-20T15:57:48.199Z,1513.6
2023-08-20T16:00:12.050Z,1611.5
2023-08-20T16:02:22.048Z,1676
2023-08-20T16:04:18.727Z,1565.4
2023-08-20T16:07:02.379Z,1082.8
2023-08-20T16:09:41.392Z,1383
2023-08-20T16:11:48.961Z,1395.8
2023-08-20T16:13:51.697Z,1472
2023-08-20T16:16:41.502Z,1425.2
2023-08-20T16:19:17.653Z,1616
2023-08-20T16:21:39.924Z,1704
2023-08-20T16:23:48.617Z,1608.9
2023-08-20T16:25:43.715Z,1418.8
2023-08-20T16:28:25.601Z,1336.3
2023-08-20T16:30:53.748Z,1266.2
2023-08-20T16:33:08.548Z,1232.9
2023-08-20T16:35:09.535Z,1210.8
2023-08-20T16:37:57.440Z,1205.7
2023-08-20T16:40:31.880Z,1206.4
2023-08-20T16:42:52.536Z,1175.6
2023-08-20T16:44:59.512Z,1156.1
2023-08-20T16:46:52.878Z,1123.2
2023-08-20T16:49:33.138Z,1087.3
2023-08-20T16:51:59.458Z,1082.5
2023-08-20T16:54:11.974Z,1069.1
2023-08-20T16:56:11.181Z,1067.8
2023-08-20T16:58:57.388Z,1065.9
2023-08-20T17:01:29.835Z,1022
2023-08-20T17:03:48.872Z,976
2023-08-20T17:05:54.180Z,938.5
2023-08-20T17:08:46.378Z,908.8
2023-08-20T17:11:27.272Z,886.4
2023-08-20T17:13:50.005Z,863.3
2023-08-20T17:16:01.242Z,841.2
2023-08-20T17:17:59.911Z,823.6
2023-08-20T17:20:43.297Z,796.4
2023-08-20T17:23:14.027Z,771.5
2023-08-20T17:25:31.037Z,747.8
2023-08-20T17:27:34.871Z,728.6
2023-08-20T17:30:25.036Z,700.4
2023-08-20T17:33:01.667Z,677.1
2023-08-20T17:35:24.827Z,657.2
2023-08-20T17:37:34.323Z,637.2
2023-08-20T17:39:30.575Z,618.7
2023-08-20T17:42:12.447Z,590.7
2023-08-20T17:44:41.559Z,560.1
2023-08-20T17:46:57.088Z,539.6
2023-08-20T17:48:59.005Z,512.8
2023-08-20T17:51:47.689Z,484.4
2023-08-20T17:54:22.727Z,460.3
2023-08-20T17:56:43.970Z,437.4
2023-08-20T17:58:52.012Z,416.1
2023-08-20T18:00:45.877Z,396.6
2023-08-20T18:03:26.782Z,372.9
2023-08-20T18:05:54.119Z,348.1
2023-08-20T18:08:07.768Z,323.3
2023-08-20T18:10:07.780Z,302.8
2023-08-20T18:12:54.832Z,268.6
2023-08-20T18:15:28.189Z,236.3
2023-08-20T18:17:47.701Z,211.7
2023-08-20T18:19:53.969Z,193.4
2023-08-20T18:22:46.841Z,166.3
2023-08-20T18:25:26.095Z,140.52
2023-08-20T18:27:51.674Z,120.6
2023-08-20T18:30:03.839Z,102.24
2023-08-20T18:32:01.888Z,88.68
2023-08-20T18:34:47.064Z,70.54
2023-08-20T18:37:18.862Z,57.22
2023-08-20T18:39:37.179Z,45.64
2023-08-20T18:41:41.328Z,37.44
2023-08-20T18:44:32.715Z,27.15
2023-08-20T18:47:10.414Z,19.15
2023-08-20T18:49:34.390Z,14.06
2023-08-20T18:51:44.696Z,10.81
2023-08-20T18:53:41.503Z,7.54
2023-08-20T18:56:25.095Z,5.16
2023-08-20T18:58:54.995Z,3.21
2023-08-20T19:01:11.574Z,2.36
2023-08-20T19:03:14.278Z,1.58
2023-08-20T19:06:03.768Z,0.97
2023-08-20T19:08:39.963Z,0.66
2023-08-20T19:11:02.287Z,0.45
2023-08-20T19:13:10.975Z,0.31
2023-08-20T19:15:06.147Z,0.23
2023-08-20T19:17:48.202Z,0.15
2023-08-20T19:19:58.078Z,0.11
2023-08-20T19:21:53.752Z,0.09
2023-08-20T19:24:36.719Z,0.06
2023-08-20T19:27:06.345Z,0.05
2023-08-20T19:29:22.034Z,0.04
2023-08-20T19:31:24.076Z,0.03
2023-08-20T19:36:48.750Z,0.02
2023-08-20T19:39:10.444Z,0.03
2023-08-20T19:43:13.229Z,0.02
2023-08-20T20:00:17.938Z,0.03
2023-08-20T20:02:24.318Z,0.02
2023-08-20T20:05:17.704Z,0.03
2023-08-20T20:07:57.377Z,0.02
2023-08-20T20:14:34.101Z,0.03
2023-08-20T20:17:19.788Z,0.02
2023-08-20T20:22:10.272Z,0.03
2023-08-20T20:24:15.028Z,0.02
2023-08-20T20:41:31.135Z,0.01
2023-08-20T23:43:38.067Z,0.02
2023-08-20T23:45:47.402Z,0.01
2023-08-20T23:47:43.029Z,0.02
2023-08-20T23:50:25.598Z,0.01
